Time;durP1;ratioP1;P1;durP2;ratioP2;P2;SDS_P1;SDS_P2;PMS_P1;PMS_P2;Temp;Humidity;BMP_temperature;BMP_pressure;BME280_temperature;BME280_humidity;BME280_pressure;Samples;Min_cycle;Max_cycle;Signal;HPM_P1;HPM_P2
2022/10/26 00:01:39;;;;;;;;;;;;;;;;;;5027421;28;2923;-60
2022/10/26 00:04:05;;;;;;;;;;;;;;;;;;5016589;28;5051;-63
2022/10/26 00:06:30;;;;;;;;;;;;;;;;;;5028087;28;4865;-62
2022/10/26 00:08:56;;;;;;;;;;;;;;;;;;5027932;28;5083;-64
2022/10/26 00:11:21;;;;;;;;;;;;;;;;;;5008736;28;5136;-63
2022/10/26 00:13:46;;;;;;;;;;;;;;;;;;5019936;28;1914;-63
2022/10/26 00:16:13;;;;;;;;;;;;;;;;;;5022397;28;5484;-59
2022/10/26 00:18:38;;;;;;;;;;;;;;;;;;5027668;28;4998;-62
2022/10/26 00:21:04;;;;;;;;;;;;;;;;;;5035186;28;5135;-61
2022/10/26 00:23:30;;;;;;;;;;;;;;;;;;5014007;28;5093;-60
2022/10/26 00:25:55;;;;;;;;;;;;;;;;;;5025796;28;4729;-61
2022/10/26 00:28:20;;;;;;;;;;;;;;;;;;5039250;28;1650;-60
2022/10/26 00:30:46;;;;;;;;;;;;;;;;;;5031600;28;4604;-61
2022/10/26 00:33:11;;;;;;;;;;;;;;;;;;5013713;28;5112;-61
2022/10/26 00:35:36;;;;;;;;;;;;;;;;;;5013059;28;5268;-60
2022/10/26 00:38:02;;;;;;;;;;;;;;;;;;5031934;28;4687;-63
2022/10/26 00:40:27;;;;;;;;;;;;;;;;;;5032408;28;1222;-60
2022/10/26 00:42:52;;;;;;;;;;;;;;;;;;5030106;28;5057;-60
2022/10/26 00:45:18;;;;;;;;;;;;;;;;;;5029536;28;4863;-61
2022/10/26 00:47:44;;;;;;;;;;;;;;;;;;5028608;28;5451;-60
2022/10/26 00:50:19;;;;;;;;;;;;;;;;;;5014249;28;4530;-58
2022/10/26 00:52:44;;;;;;;;;;;;;;;;;;5031840;28;2001;-58
2022/10/26 00:55:10;;;;;;;;;;;;;;;;;;5010426;28;4920;-60
2022/10/26 00:57:36;;;;;;;;;;;;;;;;;;5031412;28;5111;-60
2022/10/26 01:00:01;;;;;;;;;;;;;;;;;;5013612;28;5148;-61
2022/10/26 01:02:26;;;;;;;;;;;;;;;;;;5013785;28;4829;-60
2022/10/26 01:04:52;;;;;;;;;;;;;;;;;;5031275;28;5001;-60
2022/10/26 01:07:17;;;;;;;;;;;;;;;;;;5009874;28;3189;-57
2022/10/26 01:09:42;;;;;;;;;;;;;;;;;;4996598;28;4929;-60
2022/10/26 01:12:07;;;;;;;;;;;;;;;;;;5031256;28;5000;-61
2022/10/26 01:14:32;;;;;;;;;;;;;;;;;;5011764;28;5040;-59
2022/10/26 01:17:04;;;;;;;;;;;;;;;;;;5028441;28;5188;-58
2022/10/26 01:19:50;;;;;;;;;;;;;;;;;;5031271;28;1227;-60
2022/10/26 01:22:23;;;;;;;;;;;;;;;;;;5030816;28;5296;-60
2022/10/26 01:25:02;;;;;;;;;;;;;;;;;;5010233;28;4703;-59
2022/10/26 01:27:27;;;;;;;;;;;;;;;;;;5005606;28;4485;-60
2022/10/26 01:29:58;;;;;;;;;;;;;;;;;;5029406;28;4977;-60
2022/10/26 01:32:29;;;;;;;;;;;;;;;;;;5012923;28;4984;-59
2022/10/26 01:35:33;;;;;;;;;;;;;;;;;;5028060;28;5148;-60
2022/10/26 01:38:02;;;;;;;;;;;;;;;;;;4968851;28;4809;-59
2022/10/26 01:40:27;;;;;;;;;;;;;;;;;;4953121;28;1203;-60
2022/10/26 01:42:53;;;;;;;;;;;;;;;;;;4996116;28;4630;-60
2022/10/26 01:45:18;;;;;;;;;;;;;;;;;;5011601;28;5007;-60
2022/10/26 01:47:44;;;;;;;;;;;;;;;;;;5005510;28;5038;-60
2022/10/26 01:50:09;;;;;;;;;;;;;;;;;;4997260;28;4603;-60
2022/10/26 01:52:34;;;;;;;;;;;;;;;;;;5012858;28;1903;-59
2022/10/26 01:55:04;;;;;;;;;;;;;;;;;;5026370;28;5075;-59
2022/10/26 01:57:30;;;;;;;;;;;;;;;;;;5030178;28;5257;-60
2022/10/26 02:00:02;;;;;;;;;;;;;;;;;;5027783;28;5183;-60
2022/10/26 02:02:28;;;;;;;;;;;;;;;;;;5029998;28;5121;-60
2022/10/26 02:05:08;;;;;;;;;;;;;;;;;;5029781;28;5124;-59
2022/10/26 02:07:34;;;;;;;;;;;;;;;;;;5030153;28;2074;-59
2022/10/26 02:09:59;;;;;;;;;;;;;;;;;;5027600;28;5815;-58
2022/10/26 02:12:25;;;;;;;;;;;;;;;;;;5029144;28;4426;-59
2022/10/26 02:14:52;;;;;;;;;;;;;;;;;;5028676;28;5277;-60
2022/10/26 02:17:18;;;;;;;;;;;;;;;;;;5010960;28;5631;-60
2022/10/26 02:19:46;;;;;;;;;;;;;;;;;;5030345;28;1164;-60
2022/10/26 02:22:18;;;;;;;;;;;;;;;;;;5027995;28;5024;-60
2022/10/26 02:24:44;;;;;;;;;;;;;;;;;;5042023;28;5724;-60
2022/10/26 02:27:11;;;;;;;;;;;;;;;;;;5028283;28;4912;-59
2022/10/26 02:29:36;;;;;;;;;;;;;;;;;;5030548;28;4784;-62
2022/10/26 02:32:01;;;;;;;;;;;;;;;;;;5024871;28;5034;-62
2022/10/26 02:34:27;;;;;;;;;;;;;;;;;;5030125;28;1934;-62
2022/10/26 02:36:52;;;;;;;;;;;;;;;;;;5031043;28;5012;-57
2022/10/26 02:39:18;;;;;;;;;;;;;;;;;;5024266;28;5098;-62
2022/10/26 02:41:43;;;;;;;;;;;;;;;;;;5047568;28;5023;-58
2022/10/26 02:44:26;;;;;;;;;;;;;;;;;;5029787;28;5008;-61
2022/10/26 02:46:52;;;;;;;;;;;;;;;;;;5029999;28;4454;-61
2022/10/26 02:49:17;;;;;;;;;;;;;;;;;;5031180;28;4576;-57
2022/10/26 02:51:48;;;;;;;;;;;;;;;;;;5024723;28;5070;-60
2022/10/26 02:54:19;;;;;;;;;;;;;;;;;;5049189;28;5040;-60
2022/10/26 02:56:54;;;;;;;;;;;;;;;;;;5028775;28;4572;-63
2022/10/26 02:59:19;;;;;;;;;;;;;;;;;;5047331;28;5054;-59
2022/10/26 03:01:45;;;;;;;;;;;;;;;;;;5030751;28;1089;-58
2022/10/26 03:04:10;;;;;;;;;;;;;;;;;;5048705;28;4637;-59
2022/10/26 03:06:35;;;;;;;;;;;;;;;;;;5048237;28;5031;-60
2022/10/26 03:09:00;;;;;;;;;;;;;;;;;;5049010;28;5043;-60
2022/10/26 03:11:26;;;;;;;;;;;;;;;;;;5047261;28;5835;-60
2022/10/26 03:13:51;;;;;;;;;;;;;;;;;;5047401;28;5153;-57
2022/10/26 03:16:16;;;;;;;;;;;;;;;;;;5030778;28;3031;-60
2022/10/26 03:18:42;;;;;;;;;;;;;;;;;;5011942;28;4976;-60
2022/10/26 03:21:20;;;;;;;;;;;;;;;;;;5047281;28;5062;-60
2022/10/26 03:23:46;;;;;;;;;;;;;;;;;;5048587;28;4489;-61
2022/10/26 03:26:12;;;;;;;;;;;;;;;;;;5040634;28;5130;-60
2022/10/26 03:28:37;;;;;;;;;;;;;;;;;;5047521;28;2881;-60
2022/10/26 03:31:02;;;;;;;;;;;;;;;;;;5048026;28;4695;-60
2022/10/26 03:33:27;;;;;;;;;;;;;;;;;;5011878;28;4634;-60
2022/10/26 03:35:53;;;;;;;;;;;;;;;;;;5047809;28;5033;-61
2022/10/26 03:38:18;;;;;;;;;;;;;;;;;;5048390;28;5149;-60
2022/10/26 03:40:44;;;;;;;;;;;;;;;;;;5049105;28;1206;-61
2022/10/26 03:43:09;;;;;;;;;;;;;;;;;;5046133;28;5050;-60
2022/10/26 03:45:34;;;;;;;;;;;;;;;;;;5047158;28;4916;-59
2022/10/26 03:47:59;;;;;;;;;;;;;;;;;;5023473;28;4524;-60
2022/10/26 03:50:25;;;;;;;;;;;;;;;;;;5044086;28;5026;-61
2022/10/26 03:52:50;;;;;;;;;;;;;;;;;;5049050;28;2008;-61
2022/10/26 03:55:15;;;;;;;;;;;;;;;;;;5045943;28;5045;-61
2022/10/26 03:57:41;;;;;;;;;;;;;;;;;;5051072;28;4646;-60
2022/10/26 04:00:07;;;;;;;;;;;;;;;;;;5052627;28;4986;-61
2022/10/26 04:02:32;;;;;;;;;;;;;;;;;;5035714;28;5342;-58
2022/10/26 04:04:57;;;;;;;;;;;;;;;;;;5054431;28;5173;-60
2022/10/26 04:07:22;;;;;;;;;;;;;;;;;;5065928;28;1252;-61
2022/10/26 04:09:48;;;;;;;;;;;;;;;;;;5054999;28;4981;-60
2022/10/26 04:12:13;;;;;;;;;;;;;;;;;;5054425;28;4989;-59
2022/10/26 04:14:38;;;;;;;;;;;;;;;;;;5051882;28;4754;-59
2022/10/26 04:17:03;;;;;;;;;;;;;;;;;;5049575;28;5125;-61
2022/10/26 04:19:28;;;;;;;;;;;;;;;;;;5055136;28;1225;-60
2022/10/26 04:21:54;;;;;;;;;;;;;;;;;;5054032;28;4433;-61
2022/10/26 04:24:19;;;;;;;;;;;;;;;;;;5054661;28;4685;-61
2022/10/26 04:26:44;;;;;;;;;;;;;;;;;;5045233;28;5063;-61
2022/10/26 04:29:10;;;;;;;;;;;;;;;;;;5053209;28;5134;-61
2022/10/26 04:31:35;;;;;;;;;;;;;;;;;;5045911;28;2956;-61
2022/10/26 04:34:00;;;;;;;;;;;;;;;;;;5054094;28;4985;-60
2022/10/26 04:36:25;;;;;;;;;;;;;;;;;;5054374;28;4692;-59
2022/10/26 04:38:51;;;;;;;;;;;;;;;;;;5053157;28;5063;-60
2022/10/26 04:41:16;;;;;;;;;;;;;;;;;;5054461;28;5080;-60
2022/10/26 04:43:41;;;;;;;;;;;;;;;;;;5033059;28;1182;-61
2022/10/26 04:46:06;;;;;;;;;;;;;;;;;;5050945;28;5146;-61
2022/10/26 04:48:31;;;;;;;;;;;;;;;;;;5052721;28;5038;-61
2022/10/26 04:50:57;;;;;;;;;;;;;;;;;;5054025;28;4781;-61
2022/10/26 04:53:23;;;;;;;;;;;;;;;;;;5035031;28;5186;-61
2022/10/26 04:55:48;;;;;;;;;;;;;;;;;;5044765;28;1402;-59
2022/10/26 04:58:13;;;;;;;;;;;;;;;;;;5032881;28;4956;-59
2022/10/26 05:00:38;;;;;;;;;;;;;;;;;;5054391;28;4990;-60
2022/10/26 05:03:04;;;;;;;;;;;;;;;;;;5053075;28;4943;-61
2022/10/26 05:05:30;;;;;;;;;;;;;;;;;;5054048;28;5006;-60
2022/10/26 05:07:55;;;;;;;;;;;;;;;;;;5051827;28;5037;-60
2022/10/26 05:10:21;;;;;;;;;;;;;;;;;;5051279;28;1177;-60
2022/10/26 05:12:50;;;;;;;;;;;;;;;;;;5047980;28;5116;-62
2022/10/26 05:15:15;;;;;;;;;;;;;;;;;;5050496;28;5116;-61
2022/10/26 05:17:40;;;;;;;;;;;;;;;;;;5050626;28;5088;-60
2022/10/26 05:20:09;;;;;;;;;;;;;;;;;;5050184;28;5019;-58
2022/10/26 05:22:34;;;;;;;;;;;;;;;;;;5041101;28;1136;-60
2022/10/26 05:25:00;;;;;;;;;;;;;;;;;;5024267;28;4488;-60
2022/10/26 05:27:25;;;;;;;;;;;;;;;;;;5024621;28;5094;-59
2022/10/26 05:29:50;;;;;;;;;;;;;;;;;;5026829;28;5079;-59
2022/10/26 05:32:29;;;;;;;;;;;;;;;;;;5015218;28;4942;-59
2022/10/26 05:34:54;;;;;;;;;;;;;;;;;;5029459;28;5236;-60
2022/10/26 05:37:19;;;;;;;;;;;;;;;;;;5024443;28;3187;-59
2022/10/26 05:39:45;;;;;;;;;;;;;;;;;;4994478;28;5188;-57
2022/10/26 05:42:10;;;;;;;;;;;;;;;;;;5022426;28;4726;-60
2022/10/26 05:44:35;;;;;;;;;;;;;;;;;;5037402;28;5083;-60
2022/10/26 05:47:00;;;;;;;;;;;;;;;;;;5028612;28;4501;-62
2022/10/26 05:49:26;;;;;;;;;;;;;;;;;;5031380;28;4511;-61
2022/10/26 05:51:51;;;;;;;;;;;;;;;;;;5017929;28;5088;-57
2022/10/26 05:54:16;;;;;;;;;;;;;;;;;;5016911;28;5203;-62
2022/10/26 05:56:41;;;;;;;;;;;;;;;;;;5034887;28;5210;-61
2022/10/26 05:59:11;;;;;;;;;;;;;;;;;;5026986;28;4717;-62
2022/10/26 06:01:51;;;;;;;;;;;;;;;;;;5028306;28;1201;-62
2022/10/26 06:04:30;;;;;;;;;;;;;;;;;;5029534;28;5055;-62
2022/10/26 06:06:55;;;;;;;;;;;;;;;;;;5027867;28;5052;-61
2022/10/26 06:09:20;;;;;;;;;;;;;;;;;;5026311;28;4934;-62
2022/10/26 06:11:46;;;;;;;;;;;;;;;;;;5025496;28;4684;-59
2022/10/26 06:14:11;;;;;;;;;;;;;;;;;;5027820;28;4709;-62
2022/10/26 06:16:36;;;;;;;;;;;;;;;;;;5029343;28;1155;-63
2022/10/26 06:19:05;;;;;;;;;;;;;;;;;;5028770;28;4580;-61
2022/10/26 06:21:50;;;;;;;;;;;;;;;;;;5012984;28;5286;-60
2022/10/26 06:24:27;;;;;;;;;;;;;;;;;;5024192;28;5152;-62
2022/10/26 06:27:13;;;;;;;;;;;;;;;;;;5022383;28;4963;-63
2022/10/26 06:29:56;;;;;;;;;;;;;;;;;;5014570;28;4926;-62
2022/10/26 06:32:23;;;;;;;;;;;;;;;;;;5028886;28;5372;-64
2022/10/26 06:34:48;;;;;;;;;;;;;;;;;;5028798;28;1914;-60
2022/10/26 06:37:14;;;;;;;;;;;;;;;;;;5022145;28;4998;-61
2022/10/26 06:39:41;;;;;;;;;;;;;;;;;;5048198;28;5165;-63
2022/10/26 06:42:07;;;;;;;;;;;;;;;;;;5045782;28;5388;-61
2022/10/26 06:44:32;;;;;;;;;;;;;;;;;;5030716;28;5474;-60
2022/10/26 06:46:58;;;;;;;;;;;;;;;;;;5047685;28;4837;-62
2022/10/26 06:49:26;;;;;;;;;;;;;;;;;;5035049;28;4621;-62
2022/10/26 06:51:58;;;;;;;;;;;;;;;;;;5048154;28;4901;-62
2022/10/26 06:54:25;;;;;;;;;;;;;;;;;;5030333;28;5048;-60
2022/10/26 06:56:51;;;;;;;;;;;;;;;;;;5024582;28;5434;-61
2022/10/26 06:59:35;;;;;;;;;;;;;;;;;;5046833;28;5027;-61
2022/10/26 07:02:00;;;;;;;;;;;;;;;;;;5048337;28;5676;-63
2022/10/26 07:04:26;;;;;;;;;;;;;;;;;;5052808;28;1268;-62
2022/10/26 07:06:51;;;;;;;;;;;;;;;;;;5048267;28;5914;-62
2022/10/26 07:09:16;;;;;;;;;;;;;;;;;;5047934;28;4984;-62
2022/10/26 07:11:41;;;;;;;;;;;;;;;;;;5045471;28;5259;-62
2022/10/26 07:14:07;;;;;;;;;;;;;;;;;;5047690;28;4722;-62
2022/10/26 07:16:32;;;;;;;;;;;;;;;;;;5048455;28;1089;-58
2022/10/26 07:18:57;;;;;;;;;;;;;;;;;;5043251;28;5411;-62
2022/10/26 07:21:23;;;;;;;;;;;;;;;;;;5047149;28;4495;-62
2022/10/26 07:23:48;;;;;;;;;;;;;;;;;;5029400;28;5088;-61
2022/10/26 07:26:13;;;;;;;;;;;;;;;;;;5019249;28;4604;-61
2022/10/26 07:28:38;;;;;;;;;;;;;;;;;;5016751;28;1364;-62
2022/10/26 07:31:04;;;;;;;;;;;;;;;;;;5035053;28;4821;-62
2022/10/26 07:33:29;;;;;;;;;;;;;;;;;;5029291;28;4618;-62
2022/10/26 07:35:54;;;;;;;;;;;;;;;;;;5043857;28;5130;-62
2022/10/26 07:38:20;;;;;;;;;;;;;;;;;;5047728;28;5650;-63
2022/10/26 07:40:45;;;;;;;;;;;;;;;;;;5047675;28;1150;-61
2022/10/26 07:43:10;;;;;;;;;;;;;;;;;;5027750;28;4417;-63
2022/10/26 07:45:36;;;;;;;;;;;;;;;;;;5041482;28;4469;-62
2022/10/26 07:48:01;;;;;;;;;;;;;;;;;;5033810;28;5220;-62
2022/10/26 07:50:26;;;;;;;;;;;;;;;;;;5046098;28;4589;-63
2022/10/26 07:52:52;;;;;;;;;;;;;;;;;;5047354;28;5000;-60
2022/10/26 07:55:17;;;;;;;;;;;;;;;;;;5026799;28;3128;-62
2022/10/26 07:57:43;;;;;;;;;;;;;;;;;;5047092;28;4979;-62
2022/10/26 08:00:08;;;;;;;;;;;;;;;;;;5040643;28;4588;-61
2022/10/26 08:02:34;;;;;;;;;;;;;;;;;;5015065;28;5073;-62
2022/10/26 08:04:59;;;;;;;;;;;;;;;;;;5035105;28;4933;-62
2022/10/26 08:07:25;;;;;;;;;;;;;;;;;;5039153;28;2939;-63
2022/10/26 08:09:50;;;;;;;;;;;;;;;;;;5041425;28;4756;-62
2022/10/26 08:12:15;;;;;;;;;;;;;;;;;;5044749;28;5104;-63
2022/10/26 08:14:41;;;;;;;;;;;;;;;;;;5027796;28;5089;-63
2022/10/26 08:17:06;;;;;;;;;;;;;;;;;;5045426;28;5139;-60
2022/10/26 08:19:31;;;;;;;;;;;;;;;;;;5043037;28;1214;-62
2022/10/26 08:21:57;;;;;;;;;;;;;;;;;;5039041;28;4997;-62
2022/10/26 08:24:22;;;;;;;;;;;;;;;;;;5024966;28;5047;-64
2022/10/26 08:26:47;;;;;;;;;;;;;;;;;;5005225;28;4522;-62
2022/10/26 08:29:12;;;;;;;;;;;;;;;;;;5020347;28;4480;-63
2022/10/26 08:31:38;;;;;;;;;;;;;;;;;;5027155;28;1161;-63
2022/10/26 08:34:03;;;;;;;;;;;;;;;;;;5027269;28;4996;-60
2022/10/26 08:36:29;;;;;;;;;;;;;;;;;;5008791;28;5152;-62
2022/10/26 08:38:54;;;;;;;;;;;;;;;;;;5008772;28;5106;-62
2022/10/26 08:41:20;;;;;;;;;;;;;;;;;;5025491;28;5550;-60
2022/10/26 08:43:51;;;;;;;;;;;;;;;;;;5001025;28;1179;-62
2022/10/26 08:46:18;;;;;;;;;;;;;;;;;;5012928;28;5037;-63
2022/10/26 08:48:44;;;;;;;;;;;;;;;;;;5030331;28;4865;-61
2022/10/26 08:51:14;;;;;;;;;;;;;;;;;;5023293;28;4702;-61
2022/10/26 08:53:46;;;;;;;;;;;;;;;;;;5023829;28;5337;-61
2022/10/26 08:56:14;;;;;;;;;;;;;;;;;;5010057;28;4500;-63
2022/10/26 08:58:40;;;;;;;;;;;;;;;;;;5007659;28;2823;-60
2022/10/26 09:01:07;;;;;;;;;;;;;;;;;;5010918;28;4873;-62
2022/10/26 09:03:32;;;;;;;;;;;;;;;;;;5031064;28;4457;-62
2022/10/26 09:06:09;;;;;;;;;;;;;;;;;;5028452;28;5205;-61
2022/10/26 09:08:38;;;;;;;;;;;;;;;;;;5028149;28;5506;-61
2022/10/26 09:11:08;;;;;;;;;;;;;;;;;;5010052;28;5033;-61
2022/10/26 09:13:46;;;;;;;;;;;;;;;;;;5013415;28;2143;-61
2022/10/26 09:16:11;;;;;;;;;;;;;;;;;;5018669;28;4531;-62
2022/10/26 09:18:46;;;;;;;;;;;;;;;;;;5029336;28;5060;-64
2022/10/26 09:21:14;;;;;;;;;;;;;;;;;;5029737;28;4869;-62
2022/10/26 09:23:46;;;;;;;;;;;;;;;;;;5047467;28;5015;-63
2022/10/26 09:26:18;;;;;;;;;;;;;;;;;;5020452;28;4531;-62
2022/10/26 09:28:43;;;;;;;;;;;;;;;;;;5030787;28;1194;-61
2022/10/26 09:31:12;;;;;;;;;;;;;;;;;;5028169;28;4907;-60
2022/10/26 09:33:38;;;;;;;;;;;;;;;;;;5030548;28;5200;-61
2022/10/26 09:36:07;;;;;;;;;;;;;;;;;;5047645;28;5108;-61
2022/10/26 09:38:40;;;;;;;;;;;;;;;;;;5031888;28;5213;-62
2022/10/26 09:41:09;;;;;;;;;;;;;;;;;;5015148;28;5155;-61
2022/10/26 09:43:53;;;;;;;;;;;;;;;;;;5014606;28;1218;-61
2022/10/26 09:46:28;;;;;;;;;;;;;;;;;;5048554;28;4426;-62
2022/10/26 09:48:55;;;;;;;;;;;;;;;;;;5031156;28;5385;-61
2022/10/26 09:51:22;;;;;;;;;;;;;;;;;;5011454;28;5103;-62
2022/10/26 09:53:47;;;;;;;;;;;;;;;;;;5006788;28;5246;-61
2022/10/26 09:56:12;;;;;;;;;;;;;;;;;;5043914;28;5086;-60
2022/10/26 09:58:44;;;;;;;;;;;;;;;;;;5049417;28;1156;-63
2022/10/26 10:01:33;;;;;;;;;;;;;;;;;;5052197;28;4448;-63
2022/10/26 10:04:07;;;;;;;;;;;;;;;;;;5047869;28;4918;-63
2022/10/26 10:06:32;;;;;;;;;;;;;;;;;;5049019;28;5014;-61
2022/10/26 10:09:04;;;;;;;;;;;;;;;;;;5043497;28;4626;-61
2022/10/26 10:11:39;;;;;;;;;;;;;;;;;;5047862;28;5061;-61
2022/10/26 10:14:07;;;;;;;;;;;;;;;;;;5048546;28;5084;-61
2022/10/26 10:16:33;;;;;;;;;;;;;;;;;;5049283;28;1574;-61
2022/10/26 10:19:09;;;;;;;;;;;;;;;;;;5048386;28;5238;-61
2022/10/26 10:21:51;;;;;;;;;;;;;;;;;;5025917;28;4993;-63
2022/10/26 10:24:23;;;;;;;;;;;;;;;;;;5026580;28;5178;-61
2022/10/26 10:26:56;;;;;;;;;;;;;;;;;;5039962;28;5049;-63
2022/10/26 10:29:23;;;;;;;;;;;;;;;;;;5048725;28;5077;-63
2022/10/26 10:31:55;;;;;;;;;;;;;;;;;;5047387;28;1814;-63
2022/10/26 10:34:20;;;;;;;;;;;;;;;;;;5045481;28;4573;-62
2022/10/26 10:36:46;;;;;;;;;;;;;;;;;;5028204;28;5062;-63
2022/10/26 10:39:23;;;;;;;;;;;;;;;;;;5048438;28;4639;-63
2022/10/26 10:41:48;;;;;;;;;;;;;;;;;;5024561;28;5513;-61
2022/10/26 10:44:21;;;;;;;;;;;;;;;;;;5013593;28;4869;-62
2022/10/26 10:46:46;;;;;;;;;;;;;;;;;;5047866;28;1152;-62
2022/10/26 10:49:30;;;;;;;;;;;;;;;;;;5045320;28;5022;-61
2022/10/26 10:51:55;;;;;;;;;;;;;;;;;;5041765;28;5114;-62
2022/10/26 10:54:25;;;;;;;;;;;;;;;;;;5029817;28;5243;-62
2022/10/26 10:56:52;;;;;;;;;;;;;;;;;;5044878;28;4931;-62
2022/10/26 10:59:36;;;;;;;;;;;;;;;;;;5029579;28;4986;-62
2022/10/26 11:02:01;;;;;;;;;;;;;;;;;;5047578;28;5141;-62
2022/10/26 11:04:35;;;;;;;;;;;;;;;;;;5044849;28;2773;-66
2022/10/26 11:07:02;;;;;;;;;;;;;;;;;;5043834;28;4660;-61
2022/10/26 11:09:27;;;;;;;;;;;;;;;;;;5029378;28;4520;-63
2022/10/26 11:11:53;;;;;;;;;;;;;;;;;;5027782;28;4707;-61
2022/10/26 11:14:22;;;;;;;;;;;;;;;;;;5029959;28;5044;-63
2022/10/26 11:16:50;;;;;;;;;;;;;;;;;;5029633;28;1105;-61
2022/10/26 11:19:19;;;;;;;;;;;;;;;;;;5021470;28;4906;-63
2022/10/26 11:21:46;;;;;;;;;;;;;;;;;;5029201;28;5204;-62
2022/10/26 11:24:14;;;;;;;;;;;;;;;;;;5020838;28;5106;-61
2022/10/26 11:26:41;;;;;;;;;;;;;;;;;;5014646;28;5045;-62
2022/10/26 11:29:11;;;;;;;;;;;;;;;;;;5009672;28;4621;-64
2022/10/26 11:31:41;;;;;;;;;;;;;;;;;;5011444;28;1186;-61
2022/10/26 11:34:11;;;;;;;;;;;;;;;;;;5012661;28;4493;-62
2022/10/26 11:36:37;;;;;;;;;;;;;;;;;;5011852;28;5047;-63
2022/10/26 11:39:19;;;;;;;;;;;;;;;;;;5006722;28;4982;-63
2022/10/26 11:42:01;;;;;;;;;;;;;;;;;;5013749;28;4529;-62
2022/10/26 11:44:33;;;;;;;;;;;;;;;;;;5009178;28;5052;-61
2022/10/26 11:47:03;;;;;;;;;;;;;;;;;;5023309;28;5089;-63
2022/10/26 11:49:28;;;;;;;;;;;;;;;;;;5008839;28;4411;-61
2022/10/26 11:52:16;;;;;;;;;;;;;;;;;;5021336;28;5014;-63
2022/10/26 11:54:46;;;;;;;;;;;;;;;;;;5025839;28;4645;-61
2022/10/26 11:57:11;;;;;;;;;;;;;;;;;;5011581;28;4617;-62
2022/10/26 11:59:38;;;;;;;;;;;;;;;;;;5025382;28;5172;-62
2022/10/26 12:02:05;;;;;;;;;;;;;;;;;;5014848;28;5099;-62
2022/10/26 12:04:31;;;;;;;;;;;;;;;;;;5009796;28;1338;-63
2022/10/26 12:06:57;;;;;;;;;;;;;;;;;;5005163;28;5092;-63
2022/10/26 12:09:23;;;;;;;;;;;;;;;;;;5007085;28;4495;-63
2022/10/26 12:11:50;;;;;;;;;;;;;;;;;;5020367;28;4632;-62
2022/10/26 12:14:15;;;;;;;;;;;;;;;;;;5002466;28;4989;-63
2022/10/26 12:16:40;;;;;;;;;;;;;;;;;;5023757;28;2197;-63
2022/10/26 12:19:08;;;;;;;;;;;;;;;;;;5029093;28;4985;-63
2022/10/26 12:21:33;;;;;;;;;;;;;;;;;;5013277;28;4940;-63
2022/10/26 12:24:24;;;;;;;;;;;;;;;;;;5047909;28;4534;-63
2022/10/26 12:26:50;;;;;;;;;;;;;;;;;;5049871;28;5093;-62
2022/10/26 12:29:25;;;;;;;;;;;;;;;;;;5026739;28;5166;-63
2022/10/26 12:31:50;;;;;;;;;;;;;;;;;;5049489;28;3177;-63
2022/10/26 12:34:31;;;;;;;;;;;;;;;;;;5049466;28;4859;-63
2022/10/26 12:36:56;;;;;;;;;;;;;;;;;;5039778;28;5013;-64
2022/10/26 12:39:34;;;;;;;;;;;;;;;;;;5042711;28;5469;-62
2022/10/26 12:42:08;;;;;;;;;;;;;;;;;;5028809;28;5092;-62
2022/10/26 12:44:47;;;;;;;;;;;;;;;;;;5046546;28;5049;-64
2022/10/26 12:47:35;;;;;;;;;;;;;;;;;;5049339;28;4475;-64
2022/10/26 12:50:07;;;;;;;;;;;;;;;;;;5007760;28;5126;-62
2022/10/26 12:52:32;;;;;;;;;;;;;;;;;;5038021;28;3090;-63
2022/10/26 12:55:03;;;;;;;;;;;;;;;;;;5050154;28;5043;-64
2022/10/26 12:57:49;;;;;;;;;;;;;;;;;;5040244;28;5187;-61
2022/10/26 13:00:20;;;;;;;;;;;;;;;;;;5034055;28;4475;-64
2022/10/26 13:02:54;;;;;;;;;;;;;;;;;;5050565;28;5127;-63
2022/10/26 13:05:26;;;;;;;;;;;;;;;;;;5048232;28;4665;-63
2022/10/26 13:07:51;;;;;;;;;;;;;;;;;;5050691;28;1131;-62
2022/10/26 13:10:20;;;;;;;;;;;;;;;;;;5047243;28;4925;-63
2022/10/26 13:12:47;;;;;;;;;;;;;;;;;;5050117;28;5140;-64
2022/10/26 13:15:19;;;;;;;;;;;;;;;;;;5049872;28;5094;-64
2022/10/26 13:17:51;;;;;;;;;;;;;;;;;;5049310;28;4812;-64
2022/10/26 13:20:17;;;;;;;;;;;;;;;;;;5030721;28;5655;-63
2022/10/26 13:22:50;;;;;;;;;;;;;;;;;;5049450;28;1254;-63
2022/10/26 13:25:26;;;;;;;;;;;;;;;;;;5028343;28;4925;-63
2022/10/26 13:28:02;;;;;;;;;;;;;;;;;;5027169;28;5236;-62
2022/10/26 13:30:34;;;;;;;;;;;;;;;;;;5024556;28;5085;-63
2022/10/26 13:33:13;;;;;;;;;;;;;;;;;;5022676;28;4611;-62
2022/10/26 13:35:39;;;;;;;;;;;;;;;;;;5029412;28;4461;-63
2022/10/26 13:38:06;;;;;;;;;;;;;;;;;;5029330;28;4839;-62
2022/10/26 13:40:31;;;;;;;;;;;;;;;;;;5028766;28;1344;-63
2022/10/26 13:42:57;;;;;;;;;;;;;;;;;;4999295;28;5219;-63
2022/10/26 13:45:29;;;;;;;;;;;;;;;;;;5010190;28;5009;-62
2022/10/26 13:48:10;;;;;;;;;;;;;;;;;;5011572;28;5126;-61
2022/10/26 13:50:37;;;;;;;;;;;;;;;;;;5001220;28;4609;-64
2022/10/26 13:53:25;;;;;;;;;;;;;;;;;;5009538;28;4525;-62
2022/10/26 13:55:52;;;;;;;;;;;;;;;;;;5001857;28;1864;-63
2022/10/26 13:58:29;;;;;;;;;;;;;;;;;;5025554;28;5128;-63
2022/10/26 14:01:14;;;;;;;;;;;;;;;;;;5019455;28;4531;-62
2022/10/26 14:03:39;;;;;;;;;;;;;;;;;;5018634;28;5063;-63
2022/10/26 14:06:11;;;;;;;;;;;;;;;;;;5023659;28;5154;-63
2022/10/26 14:08:37;;;;;;;;;;;;;;;;;;4996714;28;4467;-63
2022/10/26 14:11:02;;;;;;;;;;;;;;;;;;4998060;28;5000;-63
2022/10/26 14:13:28;;;;;;;;;;;;;;;;;;5011855;28;1997;-62
2022/10/26 14:15:54;;;;;;;;;;;;;;;;;;5028387;28;5003;-62
2022/10/26 14:18:20;;;;;;;;;;;;;;;;;;5018490;28;4947;-62
2022/10/26 14:20:52;;;;;;;;;;;;;;;;;;5005473;28;5080;-62
2022/10/26 14:23:25;;;;;;;;;;;;;;;;;;5002957;28;4543;-63
2022/10/26 14:25:54;;;;;;;;;;;;;;;;;;5008222;28;3226;-63
2022/10/26 14:28:20;;;;;;;;;;;;;;;;;;5000583;28;5169;-63
2022/10/26 14:30:45;;;;;;;;;;;;;;;;;;5024783;28;4977;-64
2022/10/26 14:33:18;;;;;;;;;;;;;;;;;;5028280;28;4966;-64
2022/10/26 14:35:43;;;;;;;;;;;;;;;;;;5014927;28;5134;-62
2022/10/26 14:38:28;;;;;;;;;;;;;;;;;;5029800;28;5052;-62
2022/10/26 14:40:56;;;;;;;;;;;;;;;;;;5011053;28;4820;-61
2022/10/26 14:43:22;;;;;;;;;;;;;;;;;;5027385;28;1146;-61
2022/10/26 14:45:48;;;;;;;;;;;;;;;;;;4999639;28;4941;-63
2022/10/26 14:48:29;;;;;;;;;;;;;;;;;;5023638;28;5055;-61
2022/10/26 14:50:58;;;;;;;;;;;;;;;;;;5001209;28;5548;-63
2022/10/26 14:53:24;;;;;;;;;;;;;;;;;;5028195;28;4939;-62
2022/10/26 14:55:50;;;;;;;;;;;;;;;;;;5006185;28;1387;-62
2022/10/26 14:58:31;;;;;;;;;;;;;;;;;;5005099;28;4974;-61
2022/10/26 15:01:14;;;;;;;;;;;;;;;;;;5028311;28;5022;-61
2022/10/26 15:03:40;;;;;;;;;;;;;;;;;;5011616;28;4588;-62
2022/10/26 15:06:27;;;;;;;;;;;;;;;;;;5010158;28;5028;-64
2022/10/26 15:08:56;;;;;;;;;;;;;;;;;;5009583;28;5339;-63
2022/10/26 15:11:22;;;;;;;;;;;;;;;;;;5025068;28;4640;-64
2022/10/26 15:13:47;;;;;;;;;;;;;;;;;;4999975;28;3205;-62
2022/10/26 15:16:16;;;;;;;;;;;;;;;;;;5025380;28;4827;-62
2022/10/26 15:18:42;;;;;;;;;;;;;;;;;;4997173;28;4999;-62
2022/10/26 15:21:18;;;;;;;;;;;;;;;;;;5009738;28;5058;-63
2022/10/26 15:23:43;;;;;;;;;;;;;;;;;;5032141;28;5166;-63
2022/10/26 15:26:09;;;;;;;;;;;;;;;;;;5040810;28;4472;-63
2022/10/26 15:28:38;;;;;;;;;;;;;;;;;;5030225;28;3164;-60
2022/10/26 15:31:06;;;;;;;;;;;;;;;;;;5032166;28;5106;-63
2022/10/26 15:33:32;;;;;;;;;;;;;;;;;;5039125;28;5140;-64
2022/10/26 15:36:06;;;;;;;;;;;;;;;;;;5045673;28;4865;-62
2022/10/26 15:38:31;;;;;;;;;;;;;;;;;;5047389;28;5252;-63
2022/10/26 15:40:57;;;;;;;;;;;;;;;;;;5045735;28;4700;-62
2022/10/26 15:43:22;;;;;;;;;;;;;;;;;;5024808;28;2932;-63
2022/10/26 15:45:47;;;;;;;;;;;;;;;;;;5035312;28;4975;-63
2022/10/26 15:48:16;;;;;;;;;;;;;;;;;;5035185;28;5000;-63
2022/10/26 15:50:41;;;;;;;;;;;;;;;;;;5031181;28;4511;-63
2022/10/26 15:53:07;;;;;;;;;;;;;;;;;;5035159;28;5046;-63
2022/10/26 15:55:32;;;;;;;;;;;;;;;;;;5037728;28;1573;-62
2022/10/26 15:57:58;;;;;;;;;;;;;;;;;;5040068;28;5523;-63
2022/10/26 16:00:23;;;;;;;;;;;;;;;;;;5043589;28;4569;-62
2022/10/26 16:02:48;;;;;;;;;;;;;;;;;;5022974;28;5073;-61
2022/10/26 16:05:14;;;;;;;;;;;;;;;;;;5026596;28;5233;-68
2022/10/26 16:07:41;;;;;;;;;;;;;;;;;;5039254;28;3077;-64
2022/10/26 16:10:08;;;;;;;;;;;;;;;;;;5032864;28;5162;-65
2022/10/26 16:12:33;;;;;;;;;;;;;;;;;;5030866;28;4917;-59
2022/10/26 16:15:00;;;;;;;;;;;;;;;;;;5032260;28;4533;-64
2022/10/26 16:17:25;;;;;;;;;;;;;;;;;;5029474;28;4951;-64
2022/10/26 16:19:50;;;;;;;;;;;;;;;;;;5049836;28;3056;-63
2022/10/26 16:22:15;;;;;;;;;;;;;;;;;;5046850;28;4403;-63
2022/10/26 16:24:41;;;;;;;;;;;;;;;;;;5018997;28;4956;-63
2022/10/26 16:27:06;;;;;;;;;;;;;;;;;;4984352;28;5182;-63
2022/10/26 16:29:31;;;;;;;;;;;;;;;;;;5022324;28;4561;-65
2022/10/26 16:31:56;;;;;;;;;;;;;;;;;;5025649;28;4543;-65
2022/10/26 16:34:22;;;;;;;;;;;;;;;;;;5025304;28;2013;-65
2022/10/26 16:36:47;;;;;;;;;;;;;;;;;;5027151;28;5366;-64
2022/10/26 16:39:12;;;;;;;;;;;;;;;;;;5024409;28;5156;-64
2022/10/26 16:41:38;;;;;;;;;;;;;;;;;;5002421;28;5051;-65
2022/10/26 16:44:03;;;;;;;;;;;;;;;;;;5007495;28;5052;-64
2022/10/26 16:46:28;;;;;;;;;;;;;;;;;;5020760;28;2947;-63
2022/10/26 16:48:53;;;;;;;;;;;;;;;;;;5004389;28;4828;-62
2022/10/26 16:51:20;;;;;;;;;;;;;;;;;;5021819;28;4677;-64
2022/10/26 16:53:45;;;;;;;;;;;;;;;;;;5017895;28;5059;-63
2022/10/26 16:56:11;;;;;;;;;;;;;;;;;;5010812;28;4728;-66
2022/10/26 16:58:37;;;;;;;;;;;;;;;;;;5025559;28;1072;-64
2022/10/26 17:01:02;;;;;;;;;;;;;;;;;;5024062;28;4542;-66
2022/10/26 17:03:27;;;;;;;;;;;;;;;;;;5025204;28;4943;-65
2022/10/26 17:06:02;;;;;;;;;;;;;;;;;;5028172;28;5103;-64
2022/10/26 17:08:28;;;;;;;;;;;;;;;;;;4995937;28;5353;-65
2022/10/26 17:10:53;;;;;;;;;;;;;;;;;;5027086;28;5142;-65